sensor_id;sensor_type;location;lat;lon;timestamp;P1;durP1;ratioP1;P2;durP2;ratioP2
36321;SDS011;23564;48.290;11.460;2022-09-16T00:01:29;10.35;;;5.90;;
36321;SDS011;23564;48.290;11.460;2022-09-16T00:03:55;8.85;;;6.38;;
36321;SDS011;23564;48.290;11.460;2022-09-16T00:06:23;8.90;;;6.38;;
36321;SDS011;23564;48.290;11.460;2022-09-16T00:08:51;8.80;;;6.18;;
36321;SDS011;23564;48.290;11.460;2022-09-16T00:11:19;12.98;;;6.80;;
36321;SDS011;23564;48.290;11.460;2022-09-16T00:13:45;8.23;;;5.93;;
36321;SDS011;23564;48.290;11.460;2022-09-16T00:16:18;12.77;;;6.32;;
36321;SDS011;23564;48.290;11.460;2022-09-16T00:18:46;9.75;;;6.80;;
36321;SDS011;23564;48.290;11.460;2022-09-16T00:21:12;11.90;;;6.72;;
36321;SDS011;23564;48.290;11.460;2022-09-16T00:23:37;11.13;;;6.90;;
36321;SDS011;23564;48.290;11.460;2022-09-16T00:26:03;9.23;;;6.55;;
36321;SDS011;23564;48.290;11.460;2022-09-16T00:28:29;12.60;;;6.10;;
36321;SDS011;23564;48.290;11.460;2022-09-16T00:30:59;14.50;;;6.47;;
36321;SDS011;23564;48.290;11.460;2022-09-16T00:33:25;9.32;;;6.30;;
36321;SDS011;23564;48.290;11.460;2022-09-16T00:35:51;12.65;;;6.82;;
36321;SDS011;23564;48.290;11.460;2022-09-16T00:38:17;11.38;;;6.82;;
36321;SDS011;23564;48.290;11.460;2022-09-16T00:40:47;11.80;;;6.65;;
36321;SDS011;23564;48.290;11.460;2022-09-16T00:43:14;13.40;;;7.45;;
36321;SDS011;23564;48.290;11.460;2022-09-16T00:45:42;13.77;;;6.78;;
36321;SDS011;23564;48.290;11.460;2022-09-16T00:48:11;13.60;;;7.38;;
36321;SDS011;23564;48.290;11.460;2022-09-16T00:50:43;12.13;;;6.75;;
36321;SDS011;23564;48.290;11.460;2022-09-16T00:53:19;11.77;;;7.38;;
36321;SDS011;23564;48.290;11.460;2022-09-16T00:55:49;13.63;;;6.72;;
36321;SDS011;23564;48.290;11.460;2022-09-16T00:58:19;16.27;;;7.43;;
36321;SDS011;23564;48.290;11.460;2022-09-16T01:01:02;13.60;;;6.65;;
36321;SDS011;23564;48.290;11.460;2022-09-16T01:03:29;13.27;;;7.90;;
36321;SDS011;23564;48.290;11.460;2022-09-16T01:05:58;10.45;;;6.45;;
36321;SDS011;23564;48.290;11.460;2022-09-16T01:08:23;10.20;;;6.72;;
36321;SDS011;23564;48.290;11.460;2022-09-16T01:10:49;9.65;;;6.75;;
36321;SDS011;23564;48.290;11.460;2022-09-16T01:13:15;11.13;;;7.22;;
36321;SDS011;23564;48.290;11.460;2022-09-16T01:15:43;11.73;;;7.22;;
36321;SDS011;23564;48.290;11.460;2022-09-16T01:18:28;12.93;;;7.15;;
36321;SDS011;23564;48.290;11.460;2022-09-16T01:29:38;15.65;;;6.72;;
36321;SDS011;23564;48.290;11.460;2022-09-16T01:32:32;10.98;;;6.03;;
36321;SDS011;23564;48.290;11.460;2022-09-16T01:35:36;13.73;;;6.55;;
36321;SDS011;23564;48.290;11.460;2022-09-16T01:44:41;8.45;;;6.15;;
36321;SDS011;23564;48.290;11.460;2022-09-16T01:47:29;10.00;;;6.28;;
36321;SDS011;23564;48.290;11.460;2022-09-16T01:55:42;9.35;;;6.55;;
36321;SDS011;23564;48.290;11.460;2022-09-16T01:59:06;12.05;;;6.70;;
36321;SDS011;23564;48.290;11.460;2022-09-16T02:01:23;11.75;;;6.80;;
36321;SDS011;23564;48.290;11.460;2022-09-16T02:03:56;12.30;;;6.28;;
36321;SDS011;23564;48.290;11.460;2022-09-16T02:06:24;13.27;;;8.32;;
36321;SDS011;23564;48.290;11.460;2022-09-16T02:08:53;14.13;;;6.82;;
36321;SDS011;23564;48.290;11.460;2022-09-16T02:11:21;10.38;;;7.20;;
36321;SDS011;23564;48.290;11.460;2022-09-16T02:17:16;13.27;;;6.38;;
36321;SDS011;23564;48.290;11.460;2022-09-16T02:19:36;9.90;;;7.18;;
36321;SDS011;23564;48.290;11.460;2022-09-16T02:22:13;20.15;;;7.10;;
36321;SDS011;23564;48.290;11.460;2022-09-16T02:24:45;11.60;;;6.80;;
36321;SDS011;23564;48.290;11.460;2022-09-16T02:27:14;15.65;;;7.78;;
36321;SDS011;23564;48.290;11.460;2022-09-16T02:29:46;12.57;;;7.32;;
36321;SDS011;23564;48.290;11.460;2022-09-16T02:32:16;10.77;;;6.22;;
36321;SDS011;23564;48.290;11.460;2022-09-16T02:34:44;12.77;;;7.05;;
36321;SDS011;23564;48.290;11.460;2022-09-16T02:37:14;12.38;;;7.28;;
36321;SDS011;23564;48.290;11.460;2022-09-16T02:39:43;14.85;;;6.72;;
36321;SDS011;23564;48.290;11.460;2022-09-16T02:42:14;10.63;;;7.05;;
36321;SDS011;23564;48.290;11.460;2022-09-16T02:44:40;11.57;;;7.93;;
36321;SDS011;23564;48.290;11.460;2022-09-16T02:47:15;9.48;;;6.47;;
36321;SDS011;23564;48.290;11.460;2022-09-16T02:49:54;12.05;;;6.95;;
36321;SDS011;23564;48.290;11.460;2022-09-16T02:52:28;9.88;;;6.75;;
36321;SDS011;23564;48.290;11.460;2022-09-16T02:57:55;11.35;;;6.47;;
36321;SDS011;23564;48.290;11.460;2022-09-16T03:00:20;12.85;;;6.65;;
36321;SDS011;23564;48.290;11.460;2022-09-16T03:02:47;11.27;;;6.85;;
36321;SDS011;23564;48.290;11.460;2022-09-16T03:05:12;8.55;;;6.60;;
36321;SDS011;23564;48.290;11.460;2022-09-16T03:07:38;13.00;;;7.57;;
36321;SDS011;23564;48.290;11.460;2022-09-16T03:10:07;12.65;;;7.53;;
36321;SDS011;23564;48.290;11.460;2022-09-16T03:18:33;11.02;;;7.60;;
36321;SDS011;23564;48.290;11.460;2022-09-16T03:21:12;13.77;;;8.40;;
36321;SDS011;23564;48.290;11.460;2022-09-16T03:26:34;13.20;;;8.80;;
36321;SDS011;23564;48.290;11.460;2022-09-16T03:31:58;14.00;;;8.10;;
36321;SDS011;23564;48.290;11.460;2022-09-16T03:34:45;13.55;;;7.78;;
36321;SDS011;23564;48.290;11.460;2022-09-16T03:37:22;16.45;;;8.20;;
36321;SDS011;23564;48.290;11.460;2022-09-16T03:39:50;14.00;;;7.88;;
36321;SDS011;23564;48.290;11.460;2022-09-16T03:42:17;14.50;;;9.68;;
36321;SDS011;23564;48.290;11.460;2022-09-16T03:44:44;18.75;;;9.50;;
36321;SDS011;23564;48.290;11.460;2022-09-16T03:47:09;16.00;;;9.05;;
36321;SDS011;23564;48.290;11.460;2022-09-16T03:49:35;16.75;;;8.50;;
36321;SDS011;23564;48.290;11.460;2022-09-16T03:52:01;18.88;;;8.23;;
36321;SDS011;23564;48.290;11.460;2022-09-16T03:54:29;14.88;;;7.57;;
36321;SDS011;23564;48.290;11.460;2022-09-16T03:56:55;14.20;;;8.05;;
36321;SDS011;23564;48.290;11.460;2022-09-16T03:59:21;13.52;;;7.03;;
36321;SDS011;23564;48.290;11.460;2022-09-16T04:01:46;12.05;;;7.65;;
36321;SDS011;23564;48.290;11.460;2022-09-16T04:04:12;12.23;;;7.88;;
36321;SDS011;23564;48.290;11.460;2022-09-16T04:06:38;15.23;;;8.63;;
36321;SDS011;23564;48.290;11.460;2022-09-16T04:09:04;16.33;;;8.40;;
36321;SDS011;23564;48.290;11.460;2022-09-16T04:11:31;13.65;;;8.38;;
36321;SDS011;23564;48.290;11.460;2022-09-16T04:13:57;17.30;;;9.07;;
36321;SDS011;23564;48.290;11.460;2022-09-16T04:16:23;17.15;;;10.50;;
36321;SDS011;23564;48.290;11.460;2022-09-16T04:18:49;21.70;;;9.52;;
36321;SDS011;23564;48.290;11.460;2022-09-16T04:21:15;16.95;;;9.30;;
36321;SDS011;23564;48.290;11.460;2022-09-16T04:23:42;15.20;;;9.93;;
36321;SDS011;23564;48.290;11.460;2022-09-16T04:26:08;17.25;;;9.43;;
36321;SDS011;23564;48.290;11.460;2022-09-16T04:28:35;16.08;;;9.57;;
36321;SDS011;23564;48.290;11.460;2022-09-16T04:31:05;15.15;;;9.32;;
36321;SDS011;23564;48.290;11.460;2022-09-16T04:33:33;17.98;;;8.82;;
36321;SDS011;23564;48.290;11.460;2022-09-16T04:36:10;14.13;;;8.85;;
36321;SDS011;23564;48.290;11.460;2022-09-16T04:38:37;14.30;;;8.55;;
36321;SDS011;23564;48.290;11.460;2022-09-16T04:41:05;12.65;;;8.32;;
36321;SDS011;23564;48.290;11.460;2022-09-16T04:43:32;17.77;;;9.07;;
36321;SDS011;23564;48.290;11.460;2022-09-16T04:45:58;14.13;;;8.77;;
36321;SDS011;23564;48.290;11.460;2022-09-16T04:48:24;16.98;;;9.40;;
36321;SDS011;23564;48.290;11.460;2022-09-16T04:50:53;13.02;;;7.72;;
36321;SDS011;23564;48.290;11.460;2022-09-16T04:53:19;14.55;;;8.70;;
36321;SDS011;23564;48.290;11.460;2022-09-16T04:55:45;15.75;;;9.27;;
36321;SDS011;23564;48.290;11.460;2022-09-16T04:58:12;13.07;;;8.20;;
36321;SDS011;23564;48.290;11.460;2022-09-16T05:00:38;13.55;;;8.68;;
36321;SDS011;23564;48.290;11.460;2022-09-16T05:03:04;11.35;;;8.45;;
36321;SDS011;23564;48.290;11.460;2022-09-16T05:05:31;13.43;;;8.20;;
36321;SDS011;23564;48.290;11.460;2022-09-16T05:07:56;16.58;;;8.55;;
36321;SDS011;23564;48.290;11.460;2022-09-16T05:10:22;14.38;;;8.40;;
36321;SDS011;23564;48.290;11.460;2022-09-16T05:12:51;19.25;;;8.30;;
36321;SDS011;23564;48.290;11.460;2022-09-16T05:15:18;13.23;;;8.68;;
36321;SDS011;23564;48.290;11.460;2022-09-16T05:17:44;14.48;;;8.30;;
36321;SDS011;23564;48.290;11.460;2022-09-16T05:20:10;13.45;;;8.13;;
36321;SDS011;23564;48.290;11.460;2022-09-16T05:22:36;15.02;;;8.27;;
36321;SDS011;23564;48.290;11.460;2022-09-16T05:25:02;13.43;;;8.52;;
36321;SDS011;23564;48.290;11.460;2022-09-16T05:27:31;13.65;;;8.57;;
36321;SDS011;23564;48.290;11.460;2022-09-16T05:29:56;13.27;;;7.53;;
36321;SDS011;23564;48.290;11.460;2022-09-16T05:32:22;12.70;;;8.02;;
36321;SDS011;23564;48.290;11.460;2022-09-16T05:34:48;13.85;;;9.18;;
36321;SDS011;23564;48.290;11.460;2022-09-16T05:37:14;15.30;;;8.50;;
36321;SDS011;23564;48.290;11.460;2022-09-16T05:39:42;21.30;;;9.18;;
36321;SDS011;23564;48.290;11.460;2022-09-16T05:42:08;17.08;;;8.77;;
36321;SDS011;23564;48.290;11.460;2022-09-16T05:44:34;17.05;;;9.15;;
36321;SDS011;23564;48.290;11.460;2022-09-16T05:47:00;13.05;;;8.57;;
36321;SDS011;23564;48.290;11.460;2022-09-16T05:49:26;14.27;;;9.02;;
36321;SDS011;23564;48.290;11.460;2022-09-16T05:51:52;14.75;;;9.15;;
36321;SDS011;23564;48.290;11.460;2022-09-16T05:54:18;13.73;;;8.45;;
36321;SDS011;23564;48.290;11.460;2022-09-16T05:56:44;14.40;;;7.93;;
36321;SDS011;23564;48.290;11.460;2022-09-16T05:59:11;14.93;;;8.30;;
36321;SDS011;23564;48.290;11.460;2022-09-16T06:01:38;13.43;;;8.63;;
36321;SDS011;23564;48.290;11.460;2022-09-16T06:04:05;15.00;;;8.45;;
36321;SDS011;23564;48.290;11.460;2022-09-16T06:06:34;14.07;;;8.18;;
36321;SDS011;23564;48.290;11.460;2022-09-16T06:09:08;15.18;;;8.43;;
36321;SDS011;23564;48.290;11.460;2022-09-16T06:11:37;13.95;;;7.63;;
36321;SDS011;23564;48.290;11.460;2022-09-16T06:14:07;13.23;;;8.20;;
36321;SDS011;23564;48.290;11.460;2022-09-16T06:16:34;12.45;;;8.10;;
36321;SDS011;23564;48.290;11.460;2022-09-16T06:19:00;14.40;;;8.90;;
36321;SDS011;23564;48.290;11.460;2022-09-16T06:21:27;14.25;;;8.00;;
36321;SDS011;23564;48.290;11.460;2022-09-16T06:23:54;11.55;;;7.78;;
36321;SDS011;23564;48.290;11.460;2022-09-16T06:26:21;14.43;;;8.68;;
36321;SDS011;23564;48.290;11.460;2022-09-16T06:28:48;13.45;;;8.50;;
36321;SDS011;23564;48.290;11.460;2022-09-16T06:31:15;11.65;;;7.60;;
36321;SDS011;23564;48.290;11.460;2022-09-16T06:33:42;13.88;;;7.53;;
36321;SDS011;23564;48.290;11.460;2022-09-16T06:36:09;13.68;;;8.00;;
36321;SDS011;23564;48.290;11.460;2022-09-16T06:38:36;16.15;;;8.70;;
36321;SDS011;23564;48.290;11.460;2022-09-16T06:41:04;10.93;;;7.07;;
36321;SDS011;23564;48.290;11.460;2022-09-16T06:43:31;15.85;;;8.60;;
36321;SDS011;23564;48.290;11.460;2022-09-16T06:45:57;16.67;;;8.05;;
36321;SDS011;23564;48.290;11.460;2022-09-16T06:48:33;15.25;;;8.10;;
36321;SDS011;23564;48.290;11.460;2022-09-16T06:50:59;17.27;;;8.98;;
36321;SDS011;23564;48.290;11.460;2022-09-16T06:53:26;45.00;;;11.45;;
36321;SDS011;23564;48.290;11.460;2022-09-16T06:55:52;31.85;;;11.00;;
36321;SDS011;23564;48.290;11.460;2022-09-16T06:58:18;14.30;;;8.65;;
36321;SDS011;23564;48.290;11.460;2022-09-16T07:00:43;13.65;;;8.35;;
36321;SDS011;23564;48.290;11.460;2022-09-16T07:03:09;15.55;;;8.20;;
36321;SDS011;23564;48.290;11.460;2022-09-16T07:05:34;14.85;;;9.05;;
36321;SDS011;23564;48.290;11.460;2022-09-16T07:08:00;13.20;;;8.27;;
36321;SDS011;23564;48.290;11.460;2022-09-16T07:10:26;12.90;;;8.07;;
36321;SDS011;23564;48.290;11.460;2022-09-16T07:12:51;16.48;;;9.88;;
36321;SDS011;23564;48.290;11.460;2022-09-16T07:15:17;15.88;;;8.02;;
36321;SDS011;23564;48.290;11.460;2022-09-16T07:17:42;36.53;;;9.27;;
36321;SDS011;23564;48.290;11.460;2022-09-16T07:20:08;34.15;;;9.30;;
36321;SDS011;23564;48.290;11.460;2022-09-16T07:22:34;15.88;;;8.07;;
36321;SDS011;23564;48.290;11.460;2022-09-16T07:24:59;12.20;;;8.13;;
36321;SDS011;23564;48.290;11.460;2022-09-16T07:27:25;39.80;;;11.30;;
36321;SDS011;23564;48.290;11.460;2022-09-16T07:29:50;31.17;;;9.70;;
36321;SDS011;23564;48.290;11.460;2022-09-16T07:32:18;19.75;;;8.02;;
36321;SDS011;23564;48.290;11.460;2022-09-16T07:34:43;19.23;;;9.15;;
36321;SDS011;23564;48.290;11.460;2022-09-16T07:37:09;15.93;;;9.70;;
36321;SDS011;23564;48.290;11.460;2022-09-16T07:39:34;17.48;;;8.10;;
36321;SDS011;23564;48.290;11.460;2022-09-16T07:42:00;13.63;;;8.10;;
36321;SDS011;23564;48.290;11.460;2022-09-16T07:44:27;12.13;;;8.05;;
36321;SDS011;23564;48.290;11.460;2022-09-16T07:46:53;12.55;;;7.65;;
36321;SDS011;23564;48.290;11.460;2022-09-16T07:49:19;18.00;;;8.32;;
36321;SDS011;23564;48.290;11.460;2022-09-16T07:51:44;13.75;;;7.68;;
36321;SDS011;23564;48.290;11.460;2022-09-16T07:54:11;19.13;;;8.93;;
36321;SDS011;23564;48.290;11.460;2022-09-16T07:56:39;14.70;;;7.57;;
36321;SDS011;23564;48.290;11.460;2022-09-16T07:59:09;11.65;;;7.47;;
36321;SDS011;23564;48.290;11.460;2022-09-16T08:01:37;14.15;;;7.65;;
36321;SDS011;23564;48.290;11.460;2022-09-16T08:04:03;14.55;;;8.95;;
36321;SDS011;23564;48.290;11.460;2022-09-16T08:06:29;14.70;;;8.50;;
36321;SDS011;23564;48.290;11.460;2022-09-16T08:08:56;12.55;;;7.78;;
36321;SDS011;23564;48.290;11.460;2022-09-16T08:11:23;13.93;;;9.45;;
36321;SDS011;23564;48.290;11.460;2022-09-16T08:13:50;11.32;;;7.50;;
36321;SDS011;23564;48.290;11.460;2022-09-16T08:16:17;15.10;;;8.50;;
36321;SDS011;23564;48.290;11.460;2022-09-16T08:18:45;17.90;;;8.70;;
36321;SDS011;23564;48.290;11.460;2022-09-16T08:21:13;20.52;;;8.52;;
36321;SDS011;23564;48.290;11.460;2022-09-16T08:23:40;16.83;;;8.77;;
36321;SDS011;23564;48.290;11.460;2022-09-16T08:26:06;14.52;;;7.95;;
36321;SDS011;23564;48.290;11.460;2022-09-16T08:28:34;15.77;;;8.73;;
36321;SDS011;23564;48.290;11.460;2022-09-16T08:31:02;14.75;;;8.23;;
36321;SDS011;23564;48.290;11.460;2022-09-16T08:33:28;15.50;;;8.30;;
36321;SDS011;23564;48.290;11.460;2022-09-16T08:36:02;12.82;;;8.30;;
36321;SDS011;23564;48.290;11.460;2022-09-16T08:38:30;14.68;;;7.75;;
36321;SDS011;23564;48.290;11.460;2022-09-16T08:41:01;13.60;;;7.60;;
36321;SDS011;23564;48.290;11.460;2022-09-16T08:51:53;14.13;;;8.65;;
36321;SDS011;23564;48.290;11.460;2022-09-16T08:54:27;13.65;;;8.43;;
36321;SDS011;23564;48.290;11.460;2022-09-16T08:56:59;18.27;;;9.00;;
36321;SDS011;23564;48.290;11.460;2022-09-16T08:59:27;12.90;;;8.32;;
36321;SDS011;23564;48.290;11.460;2022-09-16T09:08:23;12.50;;;7.60;;
36321;SDS011;23564;48.290;11.460;2022-09-16T09:11:11;15.10;;;8.90;;
36321;SDS011;23564;48.290;11.460;2022-09-16T09:26:58;19.48;;;9.70;;
36321;SDS011;23564;48.290;11.460;2022-09-16T09:29:37;18.23;;;10.20;;
36321;SDS011;23564;48.290;11.460;2022-09-16T09:40:38;15.38;;;9.90;;
36321;SDS011;23564;48.290;11.460;2022-09-16T09:43:19;18.30;;;10.63;;
36321;SDS011;23564;48.290;11.460;2022-09-16T09:45:59;18.83;;;10.85;;
36321;SDS011;23564;48.290;11.460;2022-09-16T09:54:15;12.85;;;7.68;;
36321;SDS011;23564;48.290;11.460;2022-09-16T09:56:48;16.85;;;8.52;;
36321;SDS011;23564;48.290;11.460;2022-09-16T09:59:24;12.38;;;7.82;;
36321;SDS011;23564;48.290;11.460;2022-09-16T10:02:08;14.80;;;8.90;;
36321;SDS011;23564;48.290;11.460;2022-09-16T10:04:41;15.77;;;7.93;;
36321;SDS011;23564;48.290;11.460;2022-09-16T10:07:07;12.75;;;7.28;;
36321;SDS011;23564;48.290;11.460;2022-09-16T10:09:35;13.35;;;7.10;;
36321;SDS011;23564;48.290;11.460;2022-09-16T10:12:01;14.13;;;6.57;;
36321;SDS011;23564;48.290;11.460;2022-09-16T10:14:31;14.13;;;5.13;;
36321;SDS011;23564;48.290;11.460;2022-09-16T10:17:02;17.37;;;5.47;;
36321;SDS011;23564;48.290;11.460;2022-09-16T10:19:38;8.68;;;5.15;;
36321;SDS011;23564;48.290;11.460;2022-09-16T10:22:37;7.70;;;3.92;;
36321;SDS011;23564;48.290;11.460;2022-09-16T10:25:04;7.05;;;3.83;;
36321;SDS011;23564;48.290;11.460;2022-09-16T10:27:52;8.60;;;3.58;;
36321;SDS011;23564;48.290;11.460;2022-09-16T10:30:30;5.38;;;3.35;;
36321;SDS011;23564;48.290;11.460;2022-09-16T10:33:14;6.93;;;4.07;;
36321;SDS011;23564;48.290;11.460;2022-09-16T10:35:59;7.97;;;4.38;;
36321;SDS011;23564;48.290;11.460;2022-09-16T10:38:37;11.02;;;4.95;;
36321;SDS011;23564;48.290;11.460;2022-09-16T10:41:14;6.40;;;3.92;;
36321;SDS011;23564;48.290;11.460;2022-09-16T10:43:45;8.65;;;4.80;;
36321;SDS011;23564;48.290;11.460;2022-09-16T10:46:15;10.57;;;5.25;;
36321;SDS011;23564;48.290;11.460;2022-09-16T10:48:42;10.85;;;4.75;;
36321;SDS011;23564;48.290;11.460;2022-09-16T10:51:19;8.48;;;4.40;;
36321;SDS011;23564;48.290;11.460;2022-09-16T10:53:51;10.30;;;4.95;;
36321;SDS011;23564;48.290;11.460;2022-09-16T10:56:20;8.32;;;4.80;;
36321;SDS011;23564;48.290;11.460;2022-09-16T10:58:47;8.43;;;4.22;;
36321;SDS011;23564;48.290;11.460;2022-09-16T11:01:35;7.47;;;2.75;;
36321;SDS011;23564;48.290;11.460;2022-09-16T11:04:12;3.57;;;2.60;;
36321;SDS011;23564;48.290;11.460;2022-09-16T11:07:35;4.85;;;3.40;;
36321;SDS011;23564;48.290;11.460;2022-09-16T11:10:10;11.73;;;4.03;;
36321;SDS011;23564;48.290;11.460;2022-09-16T11:15:35;8.85;;;4.10;;
36321;SDS011;23564;48.290;11.460;2022-09-16T11:24:06;9.52;;;6.05;;
36321;SDS011;23564;48.290;11.460;2022-09-16T11:34:51;11.50;;;5.97;;
36321;SDS011;23564;48.290;11.460;2022-09-16T11:37:41;13.75;;;5.80;;
36321;SDS011;23564;48.290;11.460;2022-09-16T11:45:46;8.95;;;5.30;;
36321;SDS011;23564;48.290;11.460;2022-09-16T11:48:28;11.88;;;5.68;;
36321;SDS011;23564;48.290;11.460;2022-09-16T11:51:18;9.23;;;5.30;;
36321;SDS011;23564;48.290;11.460;2022-09-16T11:57:19;9.80;;;5.50;;
36321;SDS011;23564;48.290;11.460;2022-09-16T12:07:48;8.38;;;4.22;;
36321;SDS011;23564;48.290;11.460;2022-09-16T12:10:44;7.13;;;3.28;;
36321;SDS011;23564;48.290;11.460;2022-09-16T12:13:15;11.45;;;3.97;;
36321;SDS011;23564;48.290;11.460;2022-09-16T12:15:51;4.95;;;3.10;;
36321;SDS011;23564;48.290;11.460;2022-09-16T12:18:29;3.67;;;2.72;;
36321;SDS011;23564;48.290;11.460;2022-09-16T12:21:09;4.82;;;3.05;;
36321;SDS011;23564;48.290;11.460;2022-09-16T12:23:39;6.57;;;2.97;;
36321;SDS011;23564;48.290;11.460;2022-09-16T12:26:10;5.55;;;3.20;;
36321;SDS011;23564;48.290;11.460;2022-09-16T12:28:43;9.35;;;3.55;;
36321;SDS011;23564;48.290;11.460;2022-09-16T12:31:28;3.88;;;3.22;;
36321;SDS011;23564;48.290;11.460;2022-09-16T12:34:11;4.70;;;3.03;;
36321;SDS011;23564;48.290;11.460;2022-09-16T12:36:46;5.35;;;3.92;;
36321;SDS011;23564;48.290;11.460;2022-09-16T12:39:18;7.15;;;3.75;;
36321;SDS011;23564;48.290;11.460;2022-09-16T12:47:34;9.25;;;3.90;;
36321;SDS011;23564;48.290;11.460;2022-09-16T12:50:44;13.05;;;4.63;;
36321;SDS011;23564;48.290;11.460;2022-09-16T13:01:56;4.93;;;3.03;;
36321;SDS011;23564;48.290;11.460;2022-09-16T13:04:33;5.57;;;3.00;;
36321;SDS011;23564;48.290;11.460;2022-09-16T13:07:03;9.15;;;2.92;;
36321;SDS011;23564;48.290;11.460;2022-09-16T13:09:31;4.78;;;2.30;;
36321;SDS011;23564;48.290;11.460;2022-09-16T13:12:03;5.22;;;2.33;;
36321;SDS011;23564;48.290;11.460;2022-09-16T13:14:50;5.93;;;2.63;;
36321;SDS011;23564;48.290;11.460;2022-09-16T13:17:38;5.13;;;2.72;;
36321;SDS011;23564;48.290;11.460;2022-09-16T13:20:26;3.28;;;1.95;;
36321;SDS011;23564;48.290;11.460;2022-09-16T13:23:05;6.43;;;2.78;;
36321;SDS011;23564;48.290;11.460;2022-09-16T13:25:50;3.30;;;1.80;;
36321;SDS011;23564;48.290;11.460;2022-09-16T13:28:36;8.48;;;3.00;;
36321;SDS011;23564;48.290;11.460;2022-09-16T13:33:35;9.70;;;4.63;;
36321;SDS011;23564;48.290;11.460;2022-09-16T13:38:50;9.75;;;5.25;;
36321;SDS011;23564;48.290;11.460;2022-09-16T13:44:03;5.20;;;3.22;;
36321;SDS011;23564;48.290;11.460;2022-09-16T13:46:54;6.28;;;3.17;;
36321;SDS011;23564;48.290;11.460;2022-09-16T13:49:30;6.30;;;2.90;;
36321;SDS011;23564;48.290;11.460;2022-09-16T13:51:57;5.75;;;3.50;;
36321;SDS011;23564;48.290;11.460;2022-09-16T13:54:34;5.05;;;3.17;;
36321;SDS011;23564;48.290;11.460;2022-09-16T13:57:15;7.45;;;2.88;;
36321;SDS011;23564;48.290;11.460;2022-09-16T14:02:41;7.57;;;2.90;;
36321;SDS011;23564;48.290;11.460;2022-09-16T14:14:16;5.75;;;3.00;;
36321;SDS011;23564;48.290;11.460;2022-09-16T14:16:31;8.23;;;2.97;;
36321;SDS011;23564;48.290;11.460;2022-09-16T14:21:24;6.50;;;3.42;;
36321;SDS011;23564;48.290;11.460;2022-09-16T14:23:49;5.63;;;3.50;;
36321;SDS011;23564;48.290;11.460;2022-09-16T14:26:19;6.35;;;3.33;;
36321;SDS011;23564;48.290;11.460;2022-09-16T14:28:46;5.03;;;3.08;;
36321;SDS011;23564;48.290;11.460;2022-09-16T14:31:20;5.88;;;3.30;;
36321;SDS011;23564;48.290;11.460;2022-09-16T14:33:50;4.47;;;3.17;;
36321;SDS011;23564;48.290;11.460;2022-09-16T14:36:22;5.30;;;2.50;;
36321;SDS011;23564;48.290;11.460;2022-09-16T14:38:53;6.03;;;3.25;;
36321;SDS011;23564;48.290;11.460;2022-09-16T14:41:23;5.13;;;3.13;;
36321;SDS011;23564;48.290;11.460;2022-09-16T14:43:53;6.45;;;3.55;;
36321;SDS011;23564;48.290;11.460;2022-09-16T14:46:20;7.20;;;3.80;;
36321;SDS011;23564;48.290;11.460;2022-09-16T14:48:46;6.50;;;3.60;;
36321;SDS011;23564;48.290;11.460;2022-09-16T14:51:20;9.43;;;4.05;;
36321;SDS011;23564;48.290;11.460;2022-09-16T14:53:55;8.20;;;4.22;;
36321;SDS011;23564;48.290;11.460;2022-09-16T14:56:22;5.40;;;3.15;;
36321;SDS011;23564;48.290;11.460;2022-09-16T14:58:49;6.25;;;3.55;;
36321;SDS011;23564;48.290;11.460;2022-09-16T15:01:19;8.13;;;3.45;;
36321;SDS011;23564;48.290;11.460;2022-09-16T15:06:32;7.05;;;3.40;;
36321;SDS011;23564;48.290;11.460;2022-09-16T15:09:05;6.65;;;4.05;;
36321;SDS011;23564;48.290;11.460;2022-09-16T15:11:53;10.75;;;3.72;;
36321;SDS011;23564;48.290;11.460;2022-09-16T15:14:21;9.18;;;3.63;;
36321;SDS011;23564;48.290;11.460;2022-09-16T15:16:48;7.00;;;3.55;;
36321;SDS011;23564;48.290;11.460;2022-09-16T15:19:18;6.00;;;3.40;;
36321;SDS011;23564;48.290;11.460;2022-09-16T15:21:47;6.93;;;3.67;;
36321;SDS011;23564;48.290;11.460;2022-09-16T15:24:18;8.93;;;3.97;;
36321;SDS011;23564;48.290;11.460;2022-09-16T15:26:47;6.32;;;3.83;;
36321;SDS011;23564;48.290;11.460;2022-09-16T15:31:41;5.40;;;3.70;;
36321;SDS011;23564;48.290;11.460;2022-09-16T15:36:45;8.50;;;4.05;;
36321;SDS011;23564;48.290;11.460;2022-09-16T15:39:25;8.13;;;4.03;;
36321;SDS011;23564;48.290;11.460;2022-09-16T15:42:12;7.75;;;4.07;;
36321;SDS011;23564;48.290;11.460;2022-09-16T15:44:48;6.82;;;4.03;;
36321;SDS011;23564;48.290;11.460;2022-09-16T15:47:20;9.30;;;4.68;;
36321;SDS011;23564;48.290;11.460;2022-09-16T15:49:49;10.82;;;4.10;;
36321;SDS011;23564;48.290;11.460;2022-09-16T15:53:33;8.88;;;4.30;;
36321;SDS011;23564;48.290;11.460;2022-09-16T16:00:56;5.50;;;3.38;;
36321;SDS011;23564;48.290;11.460;2022-09-16T16:03:22;5.38;;;3.58;;
36321;SDS011;23564;48.290;11.460;2022-09-16T16:05:49;5.95;;;3.42;;
36321;SDS011;23564;48.290;11.460;2022-09-16T16:11:22;8.75;;;3.38;;
36321;SDS011;23564;48.290;11.460;2022-09-16T16:13:47;4.03;;;3.00;;
36321;SDS011;23564;48.290;11.460;2022-09-16T16:16:15;5.38;;;2.95;;
36321;SDS011;23564;48.290;11.460;2022-09-16T16:18:42;4.68;;;3.30;;
36321;SDS011;23564;48.290;11.460;2022-09-16T16:21:12;4.47;;;3.50;;
36321;SDS011;23564;48.290;11.460;2022-09-16T16:23:39;7.15;;;3.22;;
36321;SDS011;23564;48.290;11.460;2022-09-16T16:26:07;4.15;;;3.53;;
36321;SDS011;23564;48.290;11.460;2022-09-16T16:28:33;12.23;;;4.45;;
36321;SDS011;23564;48.290;11.460;2022-09-16T16:31:09;4.43;;;3.05;;
36321;SDS011;23564;48.290;11.460;2022-09-16T16:33:37;8.15;;;3.35;;
36321;SDS011;23564;48.290;11.460;2022-09-16T16:36:04;5.60;;;3.50;;
36321;SDS011;23564;48.290;11.460;2022-09-16T16:38:30;6.15;;;3.15;;
36321;SDS011;23564;48.290;11.460;2022-09-16T16:40:56;5.70;;;3.10;;
36321;SDS011;23564;48.290;11.460;2022-09-16T16:43:21;5.68;;;3.88;;
36321;SDS011;23564;48.290;11.460;2022-09-16T16:45:56;7.93;;;3.90;;
36321;SDS011;23564;48.290;11.460;2022-09-16T16:48:22;6.70;;;3.80;;
36321;SDS011;23564;48.290;11.460;2022-09-16T16:50:58;6.15;;;3.58;;
36321;SDS011;23564;48.290;11.460;2022-09-16T16:53:28;7.57;;;4.00;;
36321;SDS011;23564;48.290;11.460;2022-09-16T16:56:04;7.68;;;3.83;;
36321;SDS011;23564;48.290;11.460;2022-09-16T16:58:33;7.03;;;3.70;;
36321;SDS011;23564;48.290;11.460;2022-09-16T17:01:12;6.60;;;3.90;;
36321;SDS011;23564;48.290;11.460;2022-09-16T17:03:40;5.00;;;3.63;;
36321;SDS011;23564;48.290;11.460;2022-09-16T17:06:08;9.50;;;4.60;;
36321;SDS011;23564;48.290;11.460;2022-09-16T17:08:34;5.57;;;4.03;;
36321;SDS011;23564;48.290;11.460;2022-09-16T17:11:04;8.25;;;4.10;;
36321;SDS011;23564;48.290;11.460;2022-09-16T17:13:37;7.95;;;4.35;;
36321;SDS011;23564;48.290;11.460;2022-09-16T17:16:04;7.25;;;4.00;;
36321;SDS011;23564;48.290;11.460;2022-09-16T17:18:32;4.65;;;3.72;;
36321;SDS011;23564;48.290;11.460;2022-09-16T17:21:09;8.55;;;4.00;;
36321;SDS011;23564;48.290;11.460;2022-09-16T17:23:37;7.63;;;3.97;;
36321;SDS011;23564;48.290;11.460;2022-09-16T17:26:03;6.57;;;4.38;;
36321;SDS011;23564;48.290;11.460;2022-09-16T17:28:30;7.68;;;4.18;;
36321;SDS011;23564;48.290;11.460;2022-09-16T17:30:56;8.52;;;4.45;;
36321;SDS011;23564;48.290;11.460;2022-09-16T17:33:22;6.90;;;4.55;;
36321;SDS011;23564;48.290;11.460;2022-09-16T17:35:58;12.43;;;4.32;;